sensor_id;sensor_type;location;lat;lon;timestamp;P1;durP1;ratioP1;P2;durP2;ratioP2
11691;SDS011;33659;42.672;23.354;2024-02-04T00:01:17;4.23;;;2.60;;
11691;SDS011;33659;42.672;23.354;2024-02-04T00:03:44;2.77;;;2.40;;
11691;SDS011;33659;42.672;23.354;2024-02-04T00:06:11;3.73;;;2.73;;
11691;SDS011;33659;42.672;23.354;2024-02-04T00:08:37;3.33;;;2.40;;
11691;SDS011;33659;42.672;23.354;2024-02-04T00:11:04;5.13;;;2.57;;
11691;SDS011;33659;42.672;23.354;2024-02-04T00:13:32;4.33;;;3.10;;
11691;SDS011;33659;42.672;23.354;2024-02-04T00:15:59;6.40;;;3.30;;
11691;SDS011;33659;42.672;23.354;2024-02-04T00:18:27;8.17;;;3.00;;
11691;SDS011;33659;42.672;23.354;2024-02-04T00:20:54;3.83;;;2.87;;
11691;SDS011;33659;42.672;23.354;2024-02-04T00:23:20;3.00;;;2.70;;
11691;SDS011;33659;42.672;23.354;2024-02-04T00:25:47;4.93;;;3.00;;
11691;SDS011;33659;42.672;23.354;2024-02-04T00:28:13;4.10;;;3.27;;
11691;SDS011;33659;42.672;23.354;2024-02-04T00:30:40;2.97;;;2.47;;
11691;SDS011;33659;42.672;23.354;2024-02-04T00:33:07;4.10;;;2.70;;
11691;SDS011;33659;42.672;23.354;2024-02-04T00:35:35;3.43;;;2.70;;
11691;SDS011;33659;42.672;23.354;2024-02-04T00:38:01;6.40;;;3.10;;
11691;SDS011;33659;42.672;23.354;2024-02-04T00:40:29;4.77;;;3.07;;
11691;SDS011;33659;42.672;23.354;2024-02-04T00:42:55;3.73;;;2.70;;
11691;SDS011;33659;42.672;23.354;2024-02-04T00:45:22;4.37;;;3.00;;
11691;SDS011;33659;42.672;23.354;2024-02-04T00:47:49;3.17;;;2.70;;
11691;SDS011;33659;42.672;23.354;2024-02-04T00:50:15;4.73;;;3.07;;
11691;SDS011;33659;42.672;23.354;2024-02-04T00:52:43;5.30;;;2.90;;
11691;SDS011;33659;42.672;23.354;2024-02-04T00:55:10;4.53;;;2.43;;
11691;SDS011;33659;42.672;23.354;2024-02-04T00:57:37;2.93;;;2.73;;
11691;SDS011;33659;42.672;23.354;2024-02-04T01:00:04;2.73;;;2.27;;
11691;SDS011;33659;42.672;23.354;2024-02-04T01:02:31;4.67;;;3.10;;
11691;SDS011;33659;42.672;23.354;2024-02-04T01:04:57;7.80;;;3.27;;
11691;SDS011;33659;42.672;23.354;2024-02-04T01:07:24;2.47;;;2.27;;
11691;SDS011;33659;42.672;23.354;2024-02-04T01:09:52;3.07;;;2.77;;
11691;SDS011;33659;42.672;23.354;2024-02-04T01:12:19;3.33;;;3.03;;
11691;SDS011;33659;42.672;23.354;2024-02-04T01:14:45;2.87;;;2.40;;
11691;SDS011;33659;42.672;23.354;2024-02-04T01:17:12;2.97;;;2.73;;
11691;SDS011;33659;42.672;23.354;2024-02-04T01:19:38;3.97;;;2.93;;
11691;SDS011;33659;42.672;23.354;2024-02-04T01:22:05;3.23;;;2.93;;
11691;SDS011;33659;42.672;23.354;2024-02-04T01:24:31;3.17;;;2.50;;
11691;SDS011;33659;42.672;23.354;2024-02-04T01:26:59;2.97;;;2.43;;
11691;SDS011;33659;42.672;23.354;2024-02-04T01:29:25;3.70;;;2.67;;
11691;SDS011;33659;42.672;23.354;2024-02-04T01:31:52;3.20;;;2.83;;
11691;SDS011;33659;42.672;23.354;2024-02-04T01:34:19;4.90;;;4.03;;
11691;SDS011;33659;42.672;23.354;2024-02-04T01:36:45;4.93;;;3.87;;
11691;SDS011;33659;42.672;23.354;2024-02-04T01:39:12;4.80;;;4.30;;
11691;SDS011;33659;42.672;23.354;2024-02-04T01:41:39;7.03;;;4.53;;
11691;SDS011;33659;42.672;23.354;2024-02-04T01:44:07;9.63;;;5.53;;
11691;SDS011;33659;42.672;23.354;2024-02-04T01:46:34;9.30;;;5.83;;
11691;SDS011;33659;42.672;23.354;2024-02-04T01:49:01;9.20;;;5.83;;
11691;SDS011;33659;42.672;23.354;2024-02-04T01:51:27;6.97;;;5.50;;
11691;SDS011;33659;42.672;23.354;2024-02-04T01:53:54;8.20;;;4.77;;
11691;SDS011;33659;42.672;23.354;2024-02-04T01:56:21;6.63;;;4.70;;
11691;SDS011;33659;42.672;23.354;2024-02-04T01:58:48;6.27;;;4.07;;
11691;SDS011;33659;42.672;23.354;2024-02-04T02:01:16;4.70;;;3.10;;
11691;SDS011;33659;42.672;23.354;2024-02-04T02:03:43;4.03;;;3.20;;
11691;SDS011;33659;42.672;23.354;2024-02-04T02:06:09;3.00;;;2.73;;
11691;SDS011;33659;42.672;23.354;2024-02-04T02:08:36;4.57;;;2.67;;
11691;SDS011;33659;42.672;23.354;2024-02-04T02:11:05;4.20;;;2.60;;
11691;SDS011;33659;42.672;23.354;2024-02-04T02:13:37;3.00;;;2.70;;
11691;SDS011;33659;42.672;23.354;2024-02-04T02:16:07;3.83;;;2.63;;
11691;SDS011;33659;42.672;23.354;2024-02-04T02:18:40;2.87;;;2.57;;
11691;SDS011;33659;42.672;23.354;2024-02-04T02:21:16;2.50;;;2.30;;
11691;SDS011;33659;42.672;23.354;2024-02-04T02:24:09;2.67;;;2.27;;
11691;SDS011;33659;42.672;23.354;2024-02-04T02:26:38;3.27;;;2.70;;
11691;SDS011;33659;42.672;23.354;2024-02-04T02:29:07;3.20;;;2.40;;
11691;SDS011;33659;42.672;23.354;2024-02-04T02:31:34;4.20;;;2.73;;
11691;SDS011;33659;42.672;23.354;2024-02-04T02:34:02;2.60;;;2.20;;
11691;SDS011;33659;42.672;23.354;2024-02-04T02:36:29;2.97;;;2.43;;
11691;SDS011;33659;42.672;23.354;2024-02-04T02:39:04;3.57;;;2.73;;
11691;SDS011;33659;42.672;23.354;2024-02-04T02:41:36;5.20;;;2.80;;
11691;SDS011;33659;42.672;23.354;2024-02-04T02:44:08;3.13;;;2.43;;
11691;SDS011;33659;42.672;23.354;2024-02-04T02:46:35;3.27;;;2.60;;
11691;SDS011;33659;42.672;23.354;2024-02-04T02:49:03;2.90;;;2.67;;
11691;SDS011;33659;42.672;23.354;2024-02-04T02:51:31;2.43;;;2.23;;
11691;SDS011;33659;42.672;23.354;2024-02-04T02:53:57;2.50;;;2.30;;
11691;SDS011;33659;42.672;23.354;2024-02-04T02:56:24;2.80;;;2.60;;
11691;SDS011;33659;42.672;23.354;2024-02-04T02:58:52;4.00;;;2.40;;
11691;SDS011;33659;42.672;23.354;2024-02-04T03:01:18;5.47;;;2.30;;
11691;SDS011;33659;42.672;23.354;2024-02-04T03:03:45;2.73;;;2.50;;
11691;SDS011;33659;42.672;23.354;2024-02-04T03:06:12;5.07;;;2.40;;
11691;SDS011;33659;42.672;23.354;2024-02-04T03:08:38;3.47;;;2.67;;
11691;SDS011;33659;42.672;23.354;2024-02-04T03:11:05;3.47;;;2.47;;
11691;SDS011;33659;42.672;23.354;2024-02-04T03:13:32;3.43;;;2.57;;
11691;SDS011;33659;42.672;23.354;2024-02-04T03:16:00;2.80;;;2.50;;
11691;SDS011;33659;42.672;23.354;2024-02-04T03:18:27;4.83;;;2.63;;
11691;SDS011;33659;42.672;23.354;2024-02-04T03:20:53;3.90;;;2.70;;
11691;SDS011;33659;42.672;23.354;2024-02-04T03:23:20;2.50;;;2.30;;
11691;SDS011;33659;42.672;23.354;2024-02-04T03:25:46;2.90;;;2.37;;
11691;SDS011;33659;42.672;23.354;2024-02-04T03:28:13;2.87;;;2.33;;
11691;SDS011;33659;42.672;23.354;2024-02-04T03:30:40;3.97;;;2.90;;
11691;SDS011;33659;42.672;23.354;2024-02-04T03:33:08;3.17;;;2.30;;
11691;SDS011;33659;42.672;23.354;2024-02-04T03:35:34;3.63;;;2.57;;
11691;SDS011;33659;42.672;23.354;2024-02-04T03:38:02;2.13;;;2.03;;
11691;SDS011;33659;42.672;23.354;2024-02-04T03:40:29;2.67;;;2.40;;
11691;SDS011;33659;42.672;23.354;2024-02-04T03:42:55;2.37;;;2.17;;
11691;SDS011;33659;42.672;23.354;2024-02-04T03:45:22;5.10;;;2.23;;
11691;SDS011;33659;42.672;23.354;2024-02-04T03:47:49;2.50;;;2.23;;
11691;SDS011;33659;42.672;23.354;2024-02-04T03:50:17;5.30;;;2.33;;
11691;SDS011;33659;42.672;23.354;2024-02-04T03:52:44;2.63;;;2.20;;
11691;SDS011;33659;42.672;23.354;2024-02-04T03:55:10;2.53;;;2.33;;
11691;SDS011;33659;42.672;23.354;2024-02-04T03:57:37;2.20;;;2.03;;
11691;SDS011;33659;42.672;23.354;2024-02-04T04:00:04;2.67;;;2.40;;
11691;SDS011;33659;42.672;23.354;2024-02-04T04:02:32;2.50;;;2.07;;
11691;SDS011;33659;42.672;23.354;2024-02-04T04:04:58;2.13;;;1.90;;
11691;SDS011;33659;42.672;23.354;2024-02-04T04:07:26;2.83;;;2.40;;
11691;SDS011;33659;42.672;23.354;2024-02-04T04:09:53;2.63;;;2.43;;
11691;SDS011;33659;42.672;23.354;2024-02-04T04:12:20;2.43;;;2.17;;
11691;SDS011;33659;42.672;23.354;2024-02-04T04:14:46;2.40;;;2.20;;
11691;SDS011;33659;42.672;23.354;2024-02-04T04:17:13;2.60;;;2.40;;
11691;SDS011;33659;42.672;23.354;2024-02-04T04:19:39;3.30;;;2.27;;
11691;SDS011;33659;42.672;23.354;2024-02-04T04:22:06;2.77;;;2.10;;
11691;SDS011;33659;42.672;23.354;2024-02-04T04:24:34;2.20;;;2.00;;
11691;SDS011;33659;42.672;23.354;2024-02-04T04:27:01;2.50;;;2.30;;
11691;SDS011;33659;42.672;23.354;2024-02-04T04:29:27;3.80;;;2.23;;
11691;SDS011;33659;42.672;23.354;2024-02-04T04:31:54;2.40;;;2.20;;
11691;SDS011;33659;42.672;23.354;2024-02-04T04:34:21;2.40;;;2.20;;
11691;SDS011;33659;42.672;23.354;2024-02-04T04:36:47;1.90;;;1.80;;
11691;SDS011;33659;42.672;23.354;2024-02-04T04:39:14;2.30;;;2.10;;
11691;SDS011;33659;42.672;23.354;2024-02-04T04:41:43;2.80;;;2.37;;
11691;SDS011;33659;42.672;23.354;2024-02-04T04:44:10;2.50;;;2.30;;
11691;SDS011;33659;42.672;23.354;2024-02-04T04:46:37;2.50;;;2.20;;
11691;SDS011;33659;42.672;23.354;2024-02-04T04:49:04;2.10;;;1.90;;
11691;SDS011;33659;42.672;23.354;2024-02-04T04:51:31;2.40;;;2.20;;
11691;SDS011;33659;42.672;23.354;2024-02-04T04:53:58;2.37;;;2.10;;
11691;SDS011;33659;42.672;23.354;2024-02-04T04:56:25;4.87;;;2.53;;
11691;SDS011;33659;42.672;23.354;2024-02-04T04:58:53;2.50;;;2.30;;
11691;SDS011;33659;42.672;23.354;2024-02-04T05:01:19;3.10;;;2.20;;
11691;SDS011;33659;42.672;23.354;2024-02-04T05:03:46;2.53;;;1.90;;
11691;SDS011;33659;42.672;23.354;2024-02-04T05:06:13;2.23;;;2.03;;
11691;SDS011;33659;42.672;23.354;2024-02-04T05:08:40;1.97;;;1.87;;
11691;SDS011;33659;42.672;23.354;2024-02-04T05:11:06;3.40;;;2.47;;
11691;SDS011;33659;42.672;23.354;2024-02-04T05:13:33;4.63;;;2.20;;
11691;SDS011;33659;42.672;23.354;2024-02-04T05:16:01;3.67;;;2.27;;
11691;SDS011;33659;42.672;23.354;2024-02-04T05:18:28;2.10;;;1.90;;
11691;SDS011;33659;42.672;23.354;2024-02-04T05:20:54;2.27;;;2.10;;
11691;SDS011;33659;42.672;23.354;2024-02-04T05:23:21;2.63;;;2.27;;
11691;SDS011;33659;42.672;23.354;2024-02-04T05:25:48;2.63;;;2.33;;
11691;SDS011;33659;42.672;23.354;2024-02-04T05:28:14;3.63;;;2.37;;
11691;SDS011;33659;42.672;23.354;2024-02-04T05:30:41;2.30;;;2.10;;
11691;SDS011;33659;42.672;23.354;2024-02-04T05:33:09;3.30;;;2.53;;
11691;SDS011;33659;42.672;23.354;2024-02-04T05:35:40;3.70;;;2.03;;
11691;SDS011;33659;42.672;23.354;2024-02-04T05:38:08;2.70;;;2.30;;
11691;SDS011;33659;42.672;23.354;2024-02-04T05:40:34;4.07;;;2.57;;
11691;SDS011;33659;42.672;23.354;2024-02-04T05:43:01;3.27;;;2.30;;
11691;SDS011;33659;42.672;23.354;2024-02-04T05:45:31;2.57;;;2.27;;
11691;SDS011;33659;42.672;23.354;2024-02-04T05:47:58;2.93;;;2.57;;
11691;SDS011;33659;42.672;23.354;2024-02-04T05:50:26;2.90;;;2.50;;
11691;SDS011;33659;42.672;23.354;2024-02-04T05:52:52;3.03;;;2.00;;
11691;SDS011;33659;42.672;23.354;2024-02-04T05:55:19;3.03;;;2.30;;
11691;SDS011;33659;42.672;23.354;2024-02-04T05:57:46;2.60;;;2.33;;
11691;SDS011;33659;42.672;23.354;2024-02-04T06:00:13;2.83;;;2.53;;
11691;SDS011;33659;42.672;23.354;2024-02-04T06:02:40;6.30;;;2.33;;
11691;SDS011;33659;42.672;23.354;2024-02-04T06:05:08;2.87;;;2.13;;
11691;SDS011;33659;42.672;23.354;2024-02-04T06:07:36;3.07;;;2.33;;
11691;SDS011;33659;42.672;23.354;2024-02-04T06:10:03;3.10;;;2.43;;
11691;SDS011;33659;42.672;23.354;2024-02-04T06:12:30;4.37;;;2.70;;
11691;SDS011;33659;42.672;23.354;2024-02-04T06:14:56;2.90;;;2.60;;
11691;SDS011;33659;42.672;23.354;2024-02-04T06:17:23;3.30;;;2.80;;
11691;SDS011;33659;42.672;23.354;2024-02-04T06:19:50;3.90;;;2.60;;
11691;SDS011;33659;42.672;23.354;2024-02-04T06:22:16;3.57;;;2.50;;
11691;SDS011;33659;42.672;23.354;2024-02-04T06:24:44;3.87;;;2.53;;
11691;SDS011;33659;42.672;23.354;2024-02-04T06:27:11;4.10;;;2.70;;
11691;SDS011;33659;42.672;23.354;2024-02-04T06:29:38;3.10;;;2.57;;
11691;SDS011;33659;42.672;23.354;2024-02-04T06:32:05;4.40;;;2.90;;
11691;SDS011;33659;42.672;23.354;2024-02-04T06:34:32;4.67;;;2.90;;
11691;SDS011;33659;42.672;23.354;2024-02-04T06:36:58;3.03;;;2.67;;
11691;SDS011;33659;42.672;23.354;2024-02-04T06:39:25;4.00;;;2.57;;
11691;SDS011;33659;42.672;23.354;2024-02-04T06:41:53;2.37;;;2.17;;
11691;SDS011;33659;42.672;23.354;2024-02-04T06:44:19;3.60;;;2.57;;
11691;SDS011;33659;42.672;23.354;2024-02-04T06:46:46;3.23;;;2.30;;
11691;SDS011;33659;42.672;23.354;2024-02-04T06:49:13;3.07;;;2.30;;
11691;SDS011;33659;42.672;23.354;2024-02-04T06:51:43;3.70;;;3.00;;
11691;SDS011;33659;42.672;23.354;2024-02-04T06:54:10;3.67;;;2.27;;
11691;SDS011;33659;42.672;23.354;2024-02-04T06:56:36;2.70;;;2.50;;
11691;SDS011;33659;42.672;23.354;2024-02-04T06:59:04;4.43;;;2.70;;
11691;SDS011;33659;42.672;23.354;2024-02-04T07:01:31;3.70;;;2.60;;
11691;SDS011;33659;42.672;23.354;2024-02-04T07:03:58;2.80;;;2.07;;
11691;SDS011;33659;42.672;23.354;2024-02-04T07:06:25;3.67;;;2.43;;
11691;SDS011;33659;42.672;23.354;2024-02-04T07:08:51;2.10;;;1.90;;
11691;SDS011;33659;42.672;23.354;2024-02-04T07:11:18;4.13;;;2.70;;
11691;SDS011;33659;42.672;23.354;2024-02-04T07:13:45;2.63;;;2.20;;
11691;SDS011;33659;42.672;23.354;2024-02-04T07:16:13;2.40;;;2.20;;
11691;SDS011;33659;42.672;23.354;2024-02-04T07:18:39;2.80;;;2.53;;
11691;SDS011;33659;42.672;23.354;2024-02-04T07:21:06;2.60;;;2.37;;
11691;SDS011;33659;42.672;23.354;2024-02-04T07:23:32;2.33;;;2.20;;
11691;SDS011;33659;42.672;23.354;2024-02-04T07:25:59;3.10;;;2.30;;
11691;SDS011;33659;42.672;23.354;2024-02-04T07:28:26;2.93;;;1.90;;
11691;SDS011;33659;42.672;23.354;2024-02-04T07:30:52;2.47;;;2.27;;
11691;SDS011;33659;42.672;23.354;2024-02-04T07:33:20;2.53;;;2.13;;
11691;SDS011;33659;42.672;23.354;2024-02-04T07:35:47;2.50;;;2.00;;
11691;SDS011;33659;42.672;23.354;2024-02-04T07:38:14;3.53;;;2.33;;
11691;SDS011;33659;42.672;23.354;2024-02-04T07:40:40;3.07;;;2.77;;
11691;SDS011;33659;42.672;23.354;2024-02-04T07:43:07;3.83;;;2.60;;
11691;SDS011;33659;42.672;23.354;2024-02-04T07:45:34;4.93;;;2.80;;
11691;SDS011;33659;42.672;23.354;2024-02-04T07:48:01;2.83;;;2.50;;
11691;SDS011;33659;42.672;23.354;2024-02-04T07:50:29;2.53;;;2.10;;
11691;SDS011;33659;42.672;23.354;2024-02-04T07:52:56;2.43;;;2.23;;
11691;SDS011;33659;42.672;23.354;2024-02-04T07:55:22;2.60;;;2.40;;
11691;SDS011;33659;42.672;23.354;2024-02-04T07:57:49;3.20;;;2.67;;
11691;SDS011;33659;42.672;23.354;2024-02-04T08:00:16;2.50;;;2.30;;
11691;SDS011;33659;42.672;23.354;2024-02-04T08:02:44;2.97;;;2.20;;
11691;SDS011;33659;42.672;23.354;2024-02-04T08:05:12;2.53;;;2.30;;
11691;SDS011;33659;42.672;23.354;2024-02-04T08:07:40;1.90;;;1.73;;
11691;SDS011;33659;42.672;23.354;2024-02-04T08:10:07;4.50;;;2.40;;
11691;SDS011;33659;42.672;23.354;2024-02-04T08:12:34;2.30;;;2.10;;
11691;SDS011;33659;42.672;23.354;2024-02-04T08:15:01;2.40;;;2.20;;
11691;SDS011;33659;42.672;23.354;2024-02-04T08:17:27;2.27;;;2.07;;
11691;SDS011;33659;42.672;23.354;2024-02-04T08:19:56;3.57;;;2.00;;
11691;SDS011;33659;42.672;23.354;2024-02-04T08:22:22;3.80;;;2.00;;
11691;SDS011;33659;42.672;23.354;2024-02-04T08:24:50;2.17;;;2.00;;
11691;SDS011;33659;42.672;23.354;2024-02-04T08:27:17;4.70;;;2.57;;
11691;SDS011;33659;42.672;23.354;2024-02-04T08:29:44;2.80;;;2.50;;
11691;SDS011;33659;42.672;23.354;2024-02-04T08:32:10;5.00;;;2.40;;
11691;SDS011;33659;42.672;23.354;2024-02-04T08:34:38;5.00;;;2.37;;
11691;SDS011;33659;42.672;23.354;2024-02-04T08:37:04;3.80;;;2.20;;
11691;SDS011;33659;42.672;23.354;2024-02-04T08:39:31;2.70;;;2.20;;
11691;SDS011;33659;42.672;23.354;2024-02-04T08:41:59;4.40;;;2.40;;
11691;SDS011;33659;42.672;23.354;2024-02-04T08:44:26;3.30;;;2.10;;
11691;SDS011;33659;42.672;23.354;2024-02-04T08:46:52;5.10;;;2.00;;
11691;SDS011;33659;42.672;23.354;2024-02-04T08:49:20;3.07;;;1.97;;
11691;SDS011;33659;42.672;23.354;2024-02-04T08:51:47;2.43;;;2.23;;
11691;SDS011;33659;42.672;23.354;2024-02-04T08:54:13;2.73;;;2.50;;
11691;SDS011;33659;42.672;23.354;2024-02-04T08:56:42;2.87;;;2.07;;
11691;SDS011;33659;42.672;23.354;2024-02-04T08:59:10;7.07;;;2.20;;
11691;SDS011;33659;42.672;23.354;2024-02-04T09:01:37;2.70;;;2.33;;
11691;SDS011;33659;42.672;23.354;2024-02-04T09:04:04;2.83;;;2.17;;
11691;SDS011;33659;42.672;23.354;2024-02-04T09:06:30;2.00;;;1.80;;
11691;SDS011;33659;42.672;23.354;2024-02-04T09:08:57;4.17;;;2.00;;
11691;SDS011;33659;42.672;23.354;2024-02-04T09:11:24;3.30;;;2.20;;
11691;SDS011;33659;42.672;23.354;2024-02-04T09:13:50;2.23;;;2.10;;
11691;SDS011;33659;42.672;23.354;2024-02-04T09:16:18;3.40;;;1.97;;
11691;SDS011;33659;42.672;23.354;2024-02-04T09:18:45;4.63;;;2.27;;
11691;SDS011;33659;42.672;23.354;2024-02-04T09:21:12;2.23;;;2.00;;
11691;SDS011;33659;42.672;23.354;2024-02-04T09:23:39;2.23;;;2.03;;
11691;SDS011;33659;42.672;23.354;2024-02-04T09:26:05;2.10;;;1.87;;
11691;SDS011;33659;42.672;23.354;2024-02-04T09:28:32;2.40;;;1.93;;
11691;SDS011;33659;42.672;23.354;2024-02-04T09:30:59;2.37;;;2.10;;
11691;SDS011;33659;42.672;23.354;2024-02-04T09:33:27;2.03;;;1.83;;
11691;SDS011;33659;42.672;23.354;2024-02-04T09:35:54;4.57;;;2.13;;
11691;SDS011;33659;42.672;23.354;2024-02-04T09:38:20;1.57;;;1.47;;
11691;SDS011;33659;42.672;23.354;2024-02-04T09:40:47;1.93;;;1.60;;
11691;SDS011;33659;42.672;23.354;2024-02-04T09:43:14;2.50;;;1.90;;
11691;SDS011;33659;42.672;23.354;2024-02-04T09:45:41;4.03;;;2.10;;
11691;SDS011;33659;42.672;23.354;2024-02-04T09:48:08;2.47;;;1.83;;
11691;SDS011;33659;42.672;23.354;2024-02-04T09:50:38;2.20;;;1.73;;
11691;SDS011;33659;42.672;23.354;2024-02-04T09:53:04;1.93;;;1.83;;
11691;SDS011;33659;42.672;23.354;2024-02-04T09:55:35;2.57;;;1.90;;
11691;SDS011;33659;42.672;23.354;2024-02-04T09:58:04;5.27;;;2.00;;
11691;SDS011;33659;42.672;23.354;2024-02-04T10:00:31;3.43;;;2.00;;
11691;SDS011;33659;42.672;23.354;2024-02-04T10:02:59;2.13;;;1.93;;
11691;SDS011;33659;42.672;23.354;2024-02-04T10:05:26;3.20;;;1.90;;
11691;SDS011;33659;42.672;23.354;2024-02-04T10:07:54;1.83;;;1.63;;
11691;SDS011;33659;42.672;23.354;2024-02-04T10:10:21;2.47;;;1.93;;
11691;SDS011;33659;42.672;23.354;2024-02-04T10:12:48;2.27;;;2.00;;
11691;SDS011;33659;42.672;23.354;2024-02-04T10:15:14;1.50;;;1.40;;
11691;SDS011;33659;42.672;23.354;2024-02-04T10:17:42;2.30;;;1.70;;
11691;SDS011;33659;42.672;23.354;2024-02-04T10:20:10;2.17;;;1.70;;
11691;SDS011;33659;42.672;23.354;2024-02-04T10:22:37;5.57;;;2.10;;
11691;SDS011;33659;42.672;23.354;2024-02-04T10:25:09;2.13;;;1.70;;
11691;SDS011;33659;42.672;23.354;2024-02-04T10:27:37;1.60;;;1.50;;
11691;SDS011;33659;42.672;23.354;2024-02-04T10:30:04;2.20;;;1.80;;
11691;SDS011;33659;42.672;23.354;2024-02-04T10:32:32;1.40;;;1.30;;
11691;SDS011;33659;42.672;23.354;2024-02-04T10:34:58;1.53;;;1.43;;
11691;SDS011;33659;42.672;23.354;2024-02-04T10:37:26;2.83;;;1.53;;
11691;SDS011;33659;42.672;23.354;2024-02-04T10:39:53;1.97;;;1.87;;
11691;SDS011;33659;42.672;23.354;2024-02-04T10:42:22;1.70;;;1.60;;
11691;SDS011;33659;42.672;23.354;2024-02-04T10:44:51;3.57;;;1.83;;
11691;SDS011;33659;42.672;23.354;2024-02-04T10:47:19;2.70;;;2.00;;
11691;SDS011;33659;42.672;23.354;2024-02-04T10:49:49;2.33;;;1.97;;
11691;SDS011;33659;42.672;23.354;2024-02-04T10:52:18;1.73;;;1.63;;
11691;SDS011;33659;42.672;23.354;2024-02-04T10:54:45;4.20;;;1.80;;
11691;SDS011;33659;42.672;23.354;2024-02-04T10:57:13;2.80;;;1.87;;
11691;SDS011;33659;42.672;23.354;2024-02-04T10:59:44;1.87;;;1.77;;
11691;SDS011;33659;42.672;23.354;2024-02-04T11:02:12;3.00;;;1.87;;
11691;SDS011;33659;42.672;23.354;2024-02-04T11:04:42;4.30;;;1.83;;
11691;SDS011;33659;42.672;23.354;2024-02-04T11:07:09;1.97;;;1.87;;
11691;SDS011;33659;42.672;23.354;2024-02-04T11:09:37;1.60;;;1.50;;
11691;SDS011;33659;42.672;23.354;2024-02-04T11:12:05;2.20;;;2.00;;
11691;SDS011;33659;42.672;23.354;2024-02-04T11:14:35;1.70;;;1.60;;
11691;SDS011;33659;42.672;23.354;2024-02-04T11:20:12;1.43;;;1.33;;
11691;SDS011;33659;42.672;23.354;2024-02-04T11:22:58;2.83;;;1.70;;
11691;SDS011;33659;42.672;23.354;2024-02-04T11:25:42;1.70;;;1.53;;
11691;SDS011;33659;42.672;23.354;2024-02-04T11:28:11;1.43;;;1.33;;
11691;SDS011;33659;42.672;23.354;2024-02-04T11:30:38;1.53;;;1.43;;
11691;SDS011;33659;42.672;23.354;2024-02-04T11:33:07;1.77;;;1.67;;
11691;SDS011;33659;42.672;23.354;2024-02-04T11:35:33;1.73;;;1.63;;
11691;SDS011;33659;42.672;23.354;2024-02-04T11:38:00;1.93;;;1.83;;
11691;SDS011;33659;42.672;23.354;2024-02-04T11:40:33;2.93;;;1.63;;
11691;SDS011;33659;42.672;23.354;2024-02-04T11:43:04;1.90;;;1.60;;
11691;SDS011;33659;42.672;23.354;2024-02-04T11:45:32;4.53;;;1.50;;
11691;SDS011;33659;42.672;23.354;2024-02-04T11:48:00;1.83;;;1.50;;
11691;SDS011;33659;42.672;23.354;2024-02-04T11:50:29;4.40;;;1.57;;
11691;SDS011;33659;42.672;23.354;2024-02-04T11:53:01;2.53;;;1.40;;
11691;SDS011;33659;42.672;23.354;2024-02-04T11:55:31;2.90;;;1.60;;
11691;SDS011;33659;42.672;23.354;2024-02-04T11:57:58;1.47;;;1.37;;
11691;SDS011;33659;42.672;23.354;2024-02-04T12:00:26;3.33;;;1.87;;
11691;SDS011;33659;42.672;23.354;2024-02-04T12:02:59;1.50;;;1.42;;
11691;SDS011;33659;42.672;23.354;2024-02-04T12:05:28;1.83;;;1.50;;
11691;SDS011;33659;42.672;23.354;2024-02-04T12:07:57;2.10;;;1.50;;
11691;SDS011;33659;42.672;23.354;2024-02-04T12:10:23;2.25;;;1.60;;
11691;SDS011;33659;42.672;23.354;2024-02-04T12:12:52;2.75;;;1.70;;
11691;SDS011;33659;42.672;23.354;2024-02-04T12:15:19;3.50;;;1.60;;
11691;SDS011;33659;42.672;23.354;2024-02-04T12:17:46;1.73;;;1.50;;
11691;SDS011;33659;42.672;23.354;2024-02-04T12:20:13;1.60;;;1.50;;
11691;SDS011;33659;42.672;23.354;2024-02-04T12:22:41;2.38;;;1.60;;
11691;SDS011;33659;42.672;23.354;2024-02-04T12:25:08;1.25;;;1.25;;
11691;SDS011;33659;42.672;23.354;2024-02-04T12:27:35;1.77;;;1.17;;
11691;SDS011;33659;42.672;23.354;2024-02-04T12:30:02;1.70;;;1.50;;
11691;SDS011;33659;42.672;23.354;2024-02-04T12:32:30;1.65;;;1.48;;
11691;SDS011;33659;42.672;23.354;2024-02-04T12:34:57;1.42;;;1.33;;
11691;SDS011;33659;42.672;23.354;2024-02-04T12:37:23;2.55;;;2.20;;
11691;SDS011;33659;42.672;23.354;2024-02-04T12:39:54;1.70;;;1.60;;
11691;SDS011;33659;42.672;23.354;2024-02-04T12:42:21;1.83;;;1.70;;
11691;SDS011;33659;42.672;23.354;2024-02-04T12:44:48;2.83;;;1.70;;
11691;SDS011;33659;42.672;23.354;2024-02-04T12:47:18;1.70;;;1.60;;
11691;SDS011;33659;42.672;23.354;2024-02-04T12:49:45;1.67;;;1.58;;
11691;SDS011;33659;42.672;23.354;2024-02-04T12:52:12;3.28;;;1.70;;
11691;SDS011;33659;42.672;23.354;2024-02-04T12:54:42;1.60;;;1.50;;
11691;SDS011;33659;42.672;23.354;2024-02-04T12:57:10;1.17;;;1.10;;
11691;SDS011;33659;42.672;23.354;2024-02-04T12:59:47;2.33;;;1.23;;
11691;SDS011;33659;42.672;23.354;2024-02-04T13:02:14;1.88;;;1.67;;
11691;SDS011;33659;42.672;23.354;2024-02-04T13:04:41;2.00;;;1.65;;
11691;SDS011;33659;42.672;23.354;2024-02-04T13:07:08;3.15;;;1.80;;
11691;SDS011;33659;42.672;23.354;2024-02-04T13:09:36;2.85;;;1.50;;
11691;SDS011;33659;42.672;23.354;2024-02-04T13:12:03;1.80;;;1.70;;
11691;SDS011;33659;42.672;23.354;2024-02-04T13:14:32;1.38;;;1.27;;
11691;SDS011;33659;42.672;23.354;2024-02-04T13:16:59;2.67;;;1.58;;
11691;SDS011;33659;42.672;23.354;2024-02-04T13:19:31;2.75;;;1.50;;
11691;SDS011;33659;42.672;23.354;2024-02-04T13:21:58;1.30;;;1.20;;
11691;SDS011;33659;42.672;23.354;2024-02-04T13:24:25;1.75;;;1.65;;
11691;SDS011;33659;42.672;23.354;2024-02-04T13:26:52;3.75;;;2.10;;
11691;SDS011;33659;42.672;23.354;2024-02-04T13:29:18;2.00;;;1.60;;
11691;SDS011;33659;42.672;23.354;2024-02-04T13:31:46;3.17;;;1.70;;
11691;SDS011;33659;42.672;23.354;2024-02-04T13:34:13;2.00;;;1.55;;
11691;SDS011;33659;42.672;23.354;2024-02-04T13:36:40;1.70;;;1.60;;
11691;SDS011;33659;42.672;23.354;2024-02-04T13:39:08;1.63;;;1.53;;
11691;SDS011;33659;42.672;23.354;2024-02-04T13:41:37;3.13;;;1.92;;
11691;SDS011;33659;42.672;23.354;2024-02-04T13:44:04;1.92;;;1.77;;
11691;SDS011;33659;42.672;23.354;2024-02-04T13:46:30;2.30;;;2.10;;
11691;SDS011;33659;42.672;23.354;2024-02-04T13:48:58;1.98;;;1.40;;
11691;SDS011;33659;42.672;23.354;2024-02-04T13:51:25;1.58;;;1.48;;
11691;SDS011;33659;42.672;23.354;2024-02-04T13:53:52;1.80;;;1.70;;
11691;SDS011;33659;42.672;23.354;2024-02-04T13:56:19;1.70;;;1.60;;
11691;SDS011;33659;42.672;23.354;2024-02-04T13:58:46;2.60;;;1.67;;
11691;SDS011;33659;42.672;23.354;2024-02-04T14:01:13;1.98;;;1.60;;
11691;SDS011;33659;42.672;23.354;2024-02-04T14:03:40;2.83;;;1.80;;
11691;SDS011;33659;42.672;23.354;2024-02-04T14:06:08;1.55;;;1.40;;
11691;SDS011;33659;42.672;23.354;2024-02-04T14:08:35;4.00;;;1.63;;
11691;SDS011;33659;42.672;23.354;2024-02-04T14:11:02;2.65;;;2.00;;
11691;SDS011;33659;42.672;23.354;2024-02-04T14:13:28;5.30;;;2.03;;
11691;SDS011;33659;42.672;23.354;2024-02-04T14:15:55;4.20;;;2.20;;
11691;SDS011;33659;42.672;23.354;2024-02-04T14:18:21;2.08;;;1.83;;
11691;SDS011;33659;42.672;23.354;2024-02-04T14:20:48;1.87;;;1.77;;
11691;SDS011;33659;42.672;23.354;2024-02-04T14:23:16;2.35;;;2.08;;
11691;SDS011;33659;42.672;23.354;2024-02-04T14:25:43;2.20;;;2.00;;
11691;SDS011;33659;42.672;23.354;2024-02-04T14:28:11;2.10;;;2.00;;
11691;SDS011;33659;42.672;23.354;2024-02-04T14:30:37;2.57;;;2.10;;
11691;SDS011;33659;42.672;23.354;2024-02-04T14:33:04;3.80;;;1.90;;
11691;SDS011;33659;42.672;23.354;2024-02-04T14:35:31;2.17;;;1.97;;
11691;SDS011;33659;42.672;23.354;2024-02-04T14:37:58;3.50;;;2.83;;